sensor_id;sensor_type;location;lat;lon;timestamp;pressure;altitude;pressure_sealevel;temperature;humidity
41078;BME280;26823;42.662;23.352;2022-11-20T00:00:55;94058.81;;;15.36;70.74
41078;BME280;26823;42.662;23.352;2022-11-20T00:03:21;94080.84;;;15.13;73.01
41078;BME280;26823;42.662;23.352;2022-11-20T00:05:47;94089.09;;;14.43;77.72
41078;BME280;26823;42.662;23.352;2022-11-20T00:08:15;94088.13;;;14.57;77.68
41078;BME280;26823;42.662;23.352;2022-11-20T00:10:41;94085.75;;;14.20;79.69
41078;BME280;26823;42.662;23.352;2022-11-20T00:13:07;94078.34;;;14.03;82.13
41078;BME280;26823;42.662;23.352;2022-11-20T00:15:33;94084.25;;;13.88;82.57
41078;BME280;26823;42.662;23.352;2022-11-20T00:17:58;94054.66;;;13.86;83.32
41078;BME280;26823;42.662;23.352;2022-11-20T00:20:24;94066.16;;;13.74;84.36
41078;BME280;26823;42.662;23.352;2022-11-20T00:22:49;94070.81;;;13.91;80.49
41078;BME280;26823;42.662;23.352;2022-11-20T00:25:15;94050.69;;;14.01;78.98
41078;BME280;26823;42.662;23.352;2022-11-20T00:27:41;94075.47;;;14.17;79.08
41078;BME280;26823;42.662;23.352;2022-11-20T00:30:07;94064.28;;;14.71;73.98
41078;BME280;26823;42.662;23.352;2022-11-20T00:32:35;94027.47;;;14.39;77.00
41078;BME280;26823;42.662;23.352;2022-11-20T00:35:01;94041.41;;;14.28;77.79
41078;BME280;26823;42.662;23.352;2022-11-20T00:37:26;94055.78;;;14.38;77.84
41078;BME280;26823;42.662;23.352;2022-11-20T00:39:52;94044.63;;;14.39;76.14
41078;BME280;26823;42.662;23.352;2022-11-20T00:42:17;94019.13;;;14.52;72.65
41078;BME280;26823;42.662;23.352;2022-11-20T00:44:43;94054.84;;;14.77;73.43
41078;BME280;26823;42.662;23.352;2022-11-20T00:47:08;94057.72;;;14.81;72.80
41078;BME280;26823;42.662;23.352;2022-11-20T00:49:43;94057.56;;;14.68;73.50
41078;BME280;26823;42.662;23.352;2022-11-20T00:52:08;94081.38;;;14.89;72.30
41078;BME280;26823;42.662;23.352;2022-11-20T00:54:34;94069.47;;;15.11;69.54
41078;BME280;26823;42.662;23.352;2022-11-20T00:56:59;94073.47;;;15.53;66.09
41078;BME280;26823;42.662;23.352;2022-11-20T00:59:24;94037.13;;;15.48;67.21
41078;BME280;26823;42.662;23.352;2022-11-20T01:01:50;94053.13;;;15.89;64.71
41078;BME280;26823;42.662;23.352;2022-11-20T01:04:15;94033.38;;;15.62;66.46
41078;BME280;26823;42.662;23.352;2022-11-20T01:06:41;94064.72;;;15.68;65.02
41078;BME280;26823;42.662;23.352;2022-11-20T01:09:11;94071.47;;;16.01;62.64
41078;BME280;26823;42.662;23.352;2022-11-20T01:11:41;94053.75;;;16.37;60.03
41078;BME280;26823;42.662;23.352;2022-11-20T01:14:11;94040.72;;;16.55;58.37
41078;BME280;26823;42.662;23.352;2022-11-20T01:16:39;94030.47;;;16.85;57.72
41078;BME280;26823;42.662;23.352;2022-11-20T01:19:07;94021.69;;;17.13;56.09
41078;BME280;26823;42.662;23.352;2022-11-20T01:21:36;94015.41;;;17.00;56.67
41078;BME280;26823;42.662;23.352;2022-11-20T01:24:04;94050.28;;;17.40;54.97
41078;BME280;26823;42.662;23.352;2022-11-20T01:26:35;93995.63;;;17.16;55.78
41078;BME280;26823;42.662;23.352;2022-11-20T01:29:02;94019.75;;;17.01;57.27
41078;BME280;26823;42.662;23.352;2022-11-20T01:31:34;94041.34;;;16.94;58.16
41078;BME280;26823;42.662;23.352;2022-11-20T01:34:12;94036.53;;;16.91;57.55
41078;BME280;26823;42.662;23.352;2022-11-20T01:36:39;94020.06;;;17.00;57.03
41078;BME280;26823;42.662;23.352;2022-11-20T01:39:09;94027.69;;;16.94;57.28
41078;BME280;26823;42.662;23.352;2022-11-20T01:41:35;94018.38;;;17.07;55.76
41078;BME280;26823;42.662;23.352;2022-11-20T01:44:22;94038.56;;;17.15;56.86
41078;BME280;26823;42.662;23.352;2022-11-20T01:46:59;94002.47;;;16.76;58.70
41078;BME280;26823;42.662;23.352;2022-11-20T01:49:52;93986.44;;;16.87;57.01
41078;BME280;26823;42.662;23.352;2022-11-20T01:52:54;93988.34;;;17.20;55.17
41078;BME280;26823;42.662;23.352;2022-11-20T01:55:24;93989.91;;;17.08;56.54
41078;BME280;26823;42.662;23.352;2022-11-20T01:57:51;94018.38;;;16.95;57.94
41078;BME280;26823;42.662;23.352;2022-11-20T02:00:19;94017.00;;;16.68;59.26
41078;BME280;26823;42.662;23.352;2022-11-20T02:02:52;94001.47;;;16.47;60.15
41078;BME280;26823;42.662;23.352;2022-11-20T02:05:38;94008.19;;;16.50;60.57
41078;BME280;26823;42.662;23.352;2022-11-20T02:08:06;94008.47;;;16.36;60.90
41078;BME280;26823;42.662;23.352;2022-11-20T02:10:32;94014.41;;;16.17;62.02
41078;BME280;26823;42.662;23.352;2022-11-20T02:12:58;94013.47;;;16.12;62.14
41078;BME280;26823;42.662;23.352;2022-11-20T02:15:43;94028.78;;;16.26;59.39
41078;BME280;26823;42.662;23.352;2022-11-20T02:18:10;94040.59;;;16.30;60.39
41078;BME280;26823;42.662;23.352;2022-11-20T02:20:36;94020.56;;;16.47;58.36
41078;BME280;26823;42.662;23.352;2022-11-20T02:23:09;94030.72;;;16.59;58.29
41078;BME280;26823;42.662;23.352;2022-11-20T02:25:37;94019.81;;;16.59;58.76
41078;BME280;26823;42.662;23.352;2022-11-20T02:28:04;94030.72;;;16.59;58.89
41078;BME280;26823;42.662;23.352;2022-11-20T02:30:30;94025.41;;;16.62;58.35
41078;BME280;26823;42.662;23.352;2022-11-20T02:32:57;94006.38;;;16.54;58.27
41078;BME280;26823;42.662;23.352;2022-11-20T02:37:51;94013.41;;;17.34;53.38
41078;BME280;26823;42.662;23.352;2022-11-20T02:40:18;94034.69;;;17.28;54.04
41078;BME280;26823;42.662;23.352;2022-11-20T02:42:43;94034.94;;;17.36;53.14
41078;BME280;26823;42.662;23.352;2022-11-20T02:45:09;94016.03;;;17.31;54.29
41078;BME280;26823;42.662;23.352;2022-11-20T02:47:35;94026.84;;;17.39;53.74
41078;BME280;26823;42.662;23.352;2022-11-20T02:50:00;94049.03;;;17.50;53.99
41078;BME280;26823;42.662;23.352;2022-11-20T02:52:26;94037.88;;;17.55;53.72
41078;BME280;26823;42.662;23.352;2022-11-20T02:54:52;94051.31;;;17.60;53.75
41078;BME280;26823;42.662;23.352;2022-11-20T02:57:17;94057.25;;;17.63;54.05
41078;BME280;26823;42.662;23.352;2022-11-20T02:59:43;94027.06;;;17.59;54.20
41078;BME280;26823;42.662;23.352;2022-11-20T03:02:08;94071.84;;;17.67;54.69
41078;BME280;26823;42.662;23.352;2022-11-20T03:04:34;94056.69;;;17.69;54.78
41078;BME280;26823;42.662;23.352;2022-11-20T03:06:59;94076.41;;;17.63;55.08
41078;BME280;26823;42.662;23.352;2022-11-20T03:09:25;94031.63;;;17.42;55.78
41078;BME280;26823;42.662;23.352;2022-11-20T03:11:50;94053.63;;;17.58;55.13
41078;BME280;26823;42.662;23.352;2022-11-20T03:14:16;94042.44;;;17.51;55.29
41078;BME280;26823;42.662;23.352;2022-11-20T03:16:41;94053.63;;;17.58;55.33
41078;BME280;26823;42.662;23.352;2022-11-20T03:19:06;94013.72;;;17.33;55.27
41078;BME280;26823;42.662;23.352;2022-11-20T03:21:35;94072.16;;;17.53;55.56
41078;BME280;26823;42.662;23.352;2022-11-20T03:24:01;94077.63;;;17.53;55.11
41078;BME280;26823;42.662;23.352;2022-11-20T03:26:27;94094.38;;;17.51;55.60
41078;BME280;26823;42.662;23.352;2022-11-20T03:28:58;94073.53;;;17.47;55.45
41078;BME280;26823;42.662;23.352;2022-11-20T03:31:26;94090.88;;;17.51;55.62
41078;BME280;26823;42.662;23.352;2022-11-20T03:33:52;94069.66;;;17.48;55.50
41078;BME280;26823;42.662;23.352;2022-11-20T03:36:19;94077.84;;;17.48;55.77
41078;BME280;26823;42.662;23.352;2022-11-20T03:38:45;94085.28;;;17.47;55.73
41078;BME280;26823;42.662;23.352;2022-11-20T03:41:16;94063.94;;;17.28;55.85
41078;BME280;26823;42.662;23.352;2022-11-20T03:43:41;94089.94;;;17.47;55.39
41078;BME280;26823;42.662;23.352;2022-11-20T03:46:07;94094.25;;;17.48;55.71
41078;BME280;26823;42.662;23.352;2022-11-20T03:48:33;94091.53;;;17.48;55.39
41078;BME280;26823;42.662;23.352;2022-11-20T03:51:12;94096.09;;;17.43;55.80
41078;BME280;26823;42.662;23.352;2022-11-20T03:53:39;94054.81;;;17.24;55.63
41078;BME280;26823;42.662;23.352;2022-11-20T03:56:05;94080.16;;;17.46;54.89
41078;BME280;26823;42.662;23.352;2022-11-20T03:58:32;94091.91;;;17.58;54.96
41078;BME280;26823;42.662;23.352;2022-11-20T04:00:58;94091.66;;;17.51;55.04
41078;BME280;26823;42.662;23.352;2022-11-20T04:03:28;94072.63;;;17.42;55.22
41078;BME280;26823;42.662;23.352;2022-11-20T04:05:54;94069.22;;;17.46;54.92
41078;BME280;26823;42.662;23.352;2022-11-20T04:08:19;94084.69;;;17.54;54.94
41078;BME280;26823;42.662;23.352;2022-11-20T04:10:45;94102.59;;;17.51;54.86
41078;BME280;26823;42.662;23.352;2022-11-20T04:13:10;94079.91;;;17.38;54.70
41078;BME280;26823;42.662;23.352;2022-11-20T04:15:43;94093.00;;;17.45;54.62
41078;BME280;26823;42.662;23.352;2022-11-20T04:18:08;94091.88;;;17.46;54.71
41078;BME280;26823;42.662;23.352;2022-11-20T04:20:34;94096.97;;;17.35;55.11
41078;BME280;26823;42.662;23.352;2022-11-20T04:23:00;94090.59;;;17.31;55.10
41078;BME280;26823;42.662;23.352;2022-11-20T04:25:25;94089.47;;;17.32;55.18
41078;BME280;26823;42.662;23.352;2022-11-20T04:27:51;94103.59;;;17.34;55.35
41078;BME280;26823;42.662;23.352;2022-11-20T04:30:16;94101.41;;;17.27;55.57
41078;BME280;26823;42.662;23.352;2022-11-20T04:32:41;94097.41;;;17.25;55.77
41078;BME280;26823;42.662;23.352;2022-11-20T04:35:07;94094.44;;;17.18;56.08
41078;BME280;26823;42.662;23.352;2022-11-20T04:37:32;94096.03;;;17.19;56.37
41078;BME280;26823;42.662;23.352;2022-11-20T04:39:58;94124.28;;;17.23;56.51
41078;BME280;26823;42.662;23.352;2022-11-20T04:42:24;94108.69;;;17.23;56.40
41078;BME280;26823;42.662;23.352;2022-11-20T04:44:56;94115.53;;;17.30;56.40
41078;BME280;26823;42.662;23.352;2022-11-20T04:47:21;94091.50;;;17.23;56.60
41078;BME280;26823;42.662;23.352;2022-11-20T04:49:47;94094.44;;;17.30;56.32
41078;BME280;26823;42.662;23.352;2022-11-20T04:52:19;94111.06;;;17.25;56.55
41078;BME280;26823;42.662;23.352;2022-11-20T04:54:44;94081.69;;;17.22;56.24
41078;BME280;26823;42.662;23.352;2022-11-20T04:57:10;94086.47;;;17.25;56.32
41078;BME280;26823;42.662;23.352;2022-11-20T04:59:35;94085.47;;;17.30;56.37
41078;BME280;26823;42.662;23.352;2022-11-20T05:02:00;94087.50;;;17.33;56.04
41078;BME280;26823;42.662;23.352;2022-11-20T05:04:26;94067.34;;;17.25;55.93
41078;BME280;26823;42.662;23.352;2022-11-20T05:06:51;94070.44;;;17.23;56.11
41078;BME280;26823;42.662;23.352;2022-11-20T05:09:17;94074.25;;;17.10;56.55
41078;BME280;26823;42.662;23.352;2022-11-20T05:11:42;94069.25;;;17.12;56.57
41078;BME280;26823;42.662;23.352;2022-11-20T05:14:07;94071.53;;;17.10;57.17
41078;BME280;26823;42.662;23.352;2022-11-20T05:16:34;94074.38;;;17.01;57.96
41078;BME280;26823;42.662;23.352;2022-11-20T05:18:59;94024.19;;;16.72;58.29
41078;BME280;26823;42.662;23.352;2022-11-20T05:21:25;94077.19;;;16.92;58.51
41078;BME280;26823;42.662;23.352;2022-11-20T05:23:50;94059.78;;;16.97;58.68
41078;BME280;26823;42.662;23.352;2022-11-20T05:26:20;94022.50;;;16.80;58.71
41078;BME280;26823;42.662;23.352;2022-11-20T05:28:47;94042.38;;;17.02;59.09
41078;BME280;26823;42.662;23.352;2022-11-20T05:31:18;94046.09;;;16.85;60.53
41078;BME280;26823;42.662;23.352;2022-11-20T05:33:45;94052.75;;;16.75;60.99
41078;BME280;26823;42.662;23.352;2022-11-20T05:36:12;94046.69;;;16.69;60.67
41078;BME280;26823;42.662;23.352;2022-11-20T05:38:39;94057.69;;;16.60;62.90
41078;BME280;26823;42.662;23.352;2022-11-20T05:41:10;94074.19;;;16.64;63.97
41078;BME280;26823;42.662;23.352;2022-11-20T05:43:36;94069.28;;;16.36;67.02
41078;BME280;26823;42.662;23.352;2022-11-20T05:46:03;94057.19;;;16.25;67.39
41078;BME280;26823;42.662;23.352;2022-11-20T05:48:29;94053.66;;;16.24;67.54
41078;BME280;26823;42.662;23.352;2022-11-20T05:50:57;94057.78;;;16.09;68.57
41078;BME280;26823;42.662;23.352;2022-11-20T05:53:23;94051.38;;;15.84;69.27
41078;BME280;26823;42.662;23.352;2022-11-20T05:58:24;94062.91;;;15.81;70.67
41078;BME280;26823;42.662;23.352;2022-11-20T06:00:49;94068.38;;;15.81;70.87
41078;BME280;26823;42.662;23.352;2022-11-20T06:03:15;94064.84;;;15.80;70.73
41078;BME280;26823;42.662;23.352;2022-11-20T06:05:40;94066.75;;;15.89;70.58
41078;BME280;26823;42.662;23.352;2022-11-20T06:08:06;94059.88;;;15.82;70.35
41078;BME280;26823;42.662;23.352;2022-11-20T06:10:38;94040.03;;;15.73;69.53
41078;BME280;26823;42.662;23.352;2022-11-20T06:13:03;94066.16;;;16.04;69.65
41078;BME280;26823;42.662;23.352;2022-11-20T06:15:29;94076.41;;;16.07;68.63
41078;BME280;26823;42.662;23.352;2022-11-20T06:17:55;94069.97;;;16.12;68.83
41078;BME280;26823;42.662;23.352;2022-11-20T06:20:21;94053.66;;;16.03;69.50
41078;BME280;26823;42.662;23.352;2022-11-20T06:22:47;94075.28;;;16.08;68.61
41078;BME280;26823;42.662;23.352;2022-11-20T06:25:13;94085.75;;;16.06;68.43
41078;BME280;26823;42.662;23.352;2022-11-20T06:27:38;94087.28;;;15.86;69.50
41078;BME280;26823;42.662;23.352;2022-11-20T06:30:05;94081.38;;;15.75;69.35
41078;BME280;26823;42.662;23.352;2022-11-20T06:32:30;94098.34;;;15.90;69.54
41078;BME280;26823;42.662;23.352;2022-11-20T06:34:56;94071.00;;;15.69;69.64
41078;BME280;26823;42.662;23.352;2022-11-20T06:37:21;94086.19;;;15.78;69.17
41078;BME280;26823;42.662;23.352;2022-11-20T06:39:46;94094.75;;;15.98;67.84
41078;BME280;26823;42.662;23.352;2022-11-20T06:42:12;94087.00;;;16.09;68.40
41078;BME280;26823;42.662;23.352;2022-11-20T06:44:37;94077.22;;;16.08;67.48
41078;BME280;26823;42.662;23.352;2022-11-20T06:47:03;94092.78;;;16.28;67.20
41078;BME280;26823;42.662;23.352;2022-11-20T06:49:28;94089.78;;;16.21;67.21
41078;BME280;26823;42.662;23.352;2022-11-20T06:51:53;94097.59;;;16.32;66.86
41078;BME280;26823;42.662;23.352;2022-11-20T06:54:19;94099.44;;;16.40;66.44
41078;BME280;26823;42.662;23.352;2022-11-20T06:56:47;94108.16;;;16.54;65.89
41078;BME280;26823;42.662;23.352;2022-11-20T06:59:13;94090.13;;;16.62;66.28
41078;BME280;26823;42.662;23.352;2022-11-20T07:01:38;94108.09;;;16.63;65.31
41078;BME280;26823;42.662;23.352;2022-11-20T07:04:04;94104.56;;;16.62;65.20
41078;BME280;26823;42.662;23.352;2022-11-20T07:06:30;94123.47;;;16.68;65.02
41078;BME280;26823;42.662;23.352;2022-11-20T07:08:55;94106.97;;;16.64;64.84
41078;BME280;26823;42.662;23.352;2022-11-20T07:11:21;94095.59;;;16.62;65.24
41078;BME280;26823;42.662;23.352;2022-11-20T07:13:46;94127.66;;;16.86;61.77
41078;BME280;26823;42.662;23.352;2022-11-20T07:16:12;94107.50;;;16.78;63.11
41078;BME280;26823;42.662;23.352;2022-11-20T07:18:37;94108.69;;;16.69;61.93
41078;BME280;26823;42.662;23.352;2022-11-20T07:21:06;94105.03;;;16.65;62.99
41078;BME280;26823;42.662;23.352;2022-11-20T07:23:32;94134.47;;;16.80;63.44
41078;BME280;26823;42.662;23.352;2022-11-20T07:25:58;94127.47;;;16.70;63.77
41078;BME280;26823;42.662;23.352;2022-11-20T07:28:27;94128.81;;;16.64;63.85
41078;BME280;26823;42.662;23.352;2022-11-20T07:30:53;94139.44;;;16.78;62.97
41078;BME280;26823;42.662;23.352;2022-11-20T07:33:19;94122.63;;;16.76;63.08
41078;BME280;26823;42.662;23.352;2022-11-20T07:35:45;94127.19;;;16.63;62.56
41078;BME280;26823;42.662;23.352;2022-11-20T07:38:10;94096.66;;;16.49;62.94
41078;BME280;26823;42.662;23.352;2022-11-20T07:40:36;94111.91;;;16.50;63.31
41078;BME280;26823;42.662;23.352;2022-11-20T07:43:01;94115.22;;;16.55;63.27
41078;BME280;26823;42.662;23.352;2022-11-20T07:45:26;94126.13;;;16.76;62.19
41078;BME280;26823;42.662;23.352;2022-11-20T07:47:52;94126.13;;;16.76;62.79
41078;BME280;26823;42.662;23.352;2022-11-20T07:50:18;94123.53;;;16.80;62.55
41078;BME280;26823;42.662;23.352;2022-11-20T07:52:44;94128.59;;;16.90;62.25
41078;BME280;26823;42.662;23.352;2022-11-20T07:55:10;94122.63;;;16.76;62.15
41078;BME280;26823;42.662;23.352;2022-11-20T07:57:35;94123.66;;;16.84;62.46
41078;BME280;26823;42.662;23.352;2022-11-20T08:00:01;94120.47;;;16.60;61.33
41078;BME280;26823;42.662;23.352;2022-11-20T08:02:27;94126.06;;;16.64;61.62
41078;BME280;26823;42.662;23.352;2022-11-20T08:04:52;94125.72;;;16.66;61.79
41078;BME280;26823;42.662;23.352;2022-11-20T08:07:17;94135.94;;;16.77;61.45
41078;BME280;26823;42.662;23.352;2022-11-20T08:09:43;94114.28;;;16.72;61.81
41078;BME280;26823;42.662;23.352;2022-11-20T08:12:17;94110.81;;;16.63;62.06
41078;BME280;26823;42.662;23.352;2022-11-20T08:15:02;94111.09;;;16.70;61.75
41078;BME280;26823;42.662;23.352;2022-11-20T08:17:28;94102.28;;;16.86;61.14
41078;BME280;26823;42.662;23.352;2022-11-20T08:19:53;94101.47;;;16.85;61.25
41078;BME280;26823;42.662;23.352;2022-11-20T08:22:19;94118.53;;;17.03;60.53
41078;BME280;26823;42.662;23.352;2022-11-20T08:24:45;94117.81;;;16.94;60.30
41078;BME280;26823;42.662;23.352;2022-11-20T08:27:10;94121.13;;;17.00;60.78
41078;BME280;26823;42.662;23.352;2022-11-20T08:29:36;94131.97;;;17.08;59.51
41078;BME280;26823;42.662;23.352;2022-11-20T08:32:01;94131.97;;;17.08;59.72
41078;BME280;26823;42.662;23.352;2022-11-20T08:34:27;94112.34;;;16.94;59.45
41078;BME280;26823;42.662;23.352;2022-11-20T08:36:52;94118.66;;;17.07;59.07
41078;BME280;26823;42.662;23.352;2022-11-20T08:39:18;94125.59;;;17.04;59.64
41078;BME280;26823;42.662;23.352;2022-11-20T08:41:43;94109.19;;;17.04;59.99
41078;BME280;26823;42.662;23.352;2022-11-20T08:44:09;94114.09;;;17.11;60.79
41078;BME280;26823;42.662;23.352;2022-11-20T08:46:39;94148.09;;;17.35;60.82
41078;BME280;26823;42.662;23.352;2022-11-20T08:49:08;94160.44;;;17.41;61.59
41078;BME280;26823;42.662;23.352;2022-11-20T08:51:34;94157.09;;;17.23;60.68
41078;BME280;26823;42.662;23.352;2022-11-20T08:54:00;94186.66;;;17.21;60.85
41078;BME280;26823;42.662;23.352;2022-11-20T08:56:25;94156.97;;;16.98;60.84
41078;BME280;26823;42.662;23.352;2022-11-20T08:58:51;94159.56;;;17.16;61.54
41078;BME280;26823;42.662;23.352;2022-11-20T09:01:17;94173.56;;;17.26;61.99
41078;BME280;26823;42.662;23.352;2022-11-20T09:03:43;94147.78;;;17.03;60.71
41078;BME280;26823;42.662;23.352;2022-11-20T09:06:08;94175.88;;;17.24;60.83
41078;BME280;26823;42.662;23.352;2022-11-20T09:08:34;94165.59;;;17.21;61.12
41078;BME280;26823;42.662;23.352;2022-11-20T09:11:01;94181.91;;;17.30;62.38
41078;BME280;26823;42.662;23.352;2022-11-20T09:13:28;94181.00;;;17.26;63.90
41078;BME280;26823;42.662;23.352;2022-11-20T09:15:59;94181.44;;;16.94;64.97
41078;BME280;26823;42.662;23.352;2022-11-20T09:18:26;94176.22;;;16.80;67.39
41078;BME280;26823;42.662;23.352;2022-11-20T09:20:51;94162.31;;;16.73;72.05
41078;BME280;26823;42.662;23.352;2022-11-20T09:23:20;94176.53;;;16.58;71.10
41078;BME280;26823;42.662;23.352;2022-11-20T09:25:46;94180.53;;;16.60;75.85
41078;BME280;26823;42.662;23.352;2022-11-20T09:28:11;94188.28;;;16.28;74.07
41078;BME280;26823;42.662;23.352;2022-11-20T09:30:39;94153.16;;;15.97;70.44
41078;BME280;26823;42.662;23.352;2022-11-20T09:33:05;94159.56;;;16.01;74.66
41078;BME280;26823;42.662;23.352;2022-11-20T09:35:32;94170.75;;;15.70;75.40
41078;BME280;26823;42.662;23.352;2022-11-20T09:37:57;94159.78;;;15.87;75.77
41078;BME280;26823;42.662;23.352;2022-11-20T09:40:27;94150.38;;;16.06;77.77
41078;BME280;26823;42.662;23.352;2022-11-20T09:43:20;94140.19;;;15.94;78.02
41078;BME280;26823;42.662;23.352;2022-11-20T09:46:14;94132.06;;;15.76;77.57
41078;BME280;26823;42.662;23.352;2022-11-20T09:48:52;94134.66;;;15.64;77.09
41078;BME280;26823;42.662;23.352;2022-11-20T09:56:33;94120.72;;;16.04;81.96
41078;BME280;26823;42.662;23.352;2022-11-20T09:59:04;94104.88;;;15.97;80.39
41078;BME280;26823;42.662;23.352;2022-11-20T10:01:34;94102.78;;;16.24;78.05
41078;BME280;26823;42.662;23.352;2022-11-20T10:14:38;94129.25;;;19.83;66.79
41078;BME280;26823;42.662;23.352;2022-11-20T10:17:40;94106.59;;;20.37;63.00
41078;BME280;26823;42.662;23.352;2022-11-20T10:25:47;94112.44;;;20.00;59.55
41078;BME280;26823;42.662;23.352;2022-11-20T10:31:03;94098.53;;;18.60;65.41
41078;BME280;26823;42.662;23.352;2022-11-20T10:33:36;94093.59;;;18.13;66.67
41078;BME280;26823;42.662;23.352;2022-11-20T10:36:21;94105.53;;;18.45;65.22
41078;BME280;26823;42.662;23.352;2022-11-20T10:39:00;94102.81;;;17.46;67.74
41078;BME280;26823;42.662;23.352;2022-11-20T10:41:40;94106.66;;;17.45;69.32
41078;BME280;26823;42.662;23.352;2022-11-20T10:44:19;94116.25;;;17.51;70.23
41078;BME280;26823;42.662;23.352;2022-11-20T10:47:16;94123.16;;;17.36;70.32
41078;BME280;26823;42.662;23.352;2022-11-20T10:49:44;94124.16;;;17.19;72.20
41078;BME280;26823;42.662;23.352;2022-11-20T10:54:58;94086.72;;;16.65;73.42
41078;BME280;26823;42.662;23.352;2022-11-20T10:57:32;94124.25;;;16.68;74.95
41078;BME280;26823;42.662;23.352;2022-11-20T11:00:08;94127.25;;;16.54;75.56
41078;BME280;26823;42.662;23.352;2022-11-20T11:02:55;94127.16;;;16.51;75.84
41078;BME280;26823;42.662;23.352;2022-11-20T11:05:36;94126.22;;;16.25;77.01
41078;BME280;26823;42.662;23.352;2022-11-20T11:08:10;94146.16;;;16.17;79.01
41078;BME280;26823;42.662;23.352;2022-11-20T11:10:50;94150.97;;;16.20;81.54
41078;BME280;26823;42.662;23.352;2022-11-20T11:13:27;94174.28;;;16.09;83.13
41078;BME280;26823;42.662;23.352;2022-11-20T11:15:53;94193.31;;;15.88;85.63
41078;BME280;26823;42.662;23.352;2022-11-20T11:18:33;94182.78;;;15.60;87.83
41078;BME280;26823;42.662;23.352;2022-11-20T11:21:02;94179.69;;;15.14;78.81
41078;BME280;26823;42.662;23.352;2022-11-20T11:23:37;94187.56;;;14.80;76.93
41078;BME280;26823;42.662;23.352;2022-11-20T11:26:06;94180.78;;;14.34;73.65
41078;BME280;26823;42.662;23.352;2022-11-20T11:28:32;94171.19;;;14.28;77.98
41078;BME280;26823;42.662;23.352;2022-11-20T11:30:58;94156.28;;;14.16;78.35
41078;BME280;26823;42.662;23.352;2022-11-20T11:33:29;94170.00;;;14.02;76.94
41078;BME280;26823;42.662;23.352;2022-11-20T11:36:03;94166.16;;;14.12;79.61
41078;BME280;26823;42.662;23.352;2022-11-20T11:38:40;94163.41;;;13.86;80.16
41078;BME280;26823;42.662;23.352;2022-11-20T11:41:22;94147.91;;;13.55;78.38
41078;BME280;26823;42.662;23.352;2022-11-20T11:43:54;94150.19;;;13.30;77.27
41078;BME280;26823;42.662;23.352;2022-11-20T11:46:45;94147.94;;;13.32;79.86
41078;BME280;26823;42.662;23.352;2022-11-20T11:49:18;94143.91;;;13.21;79.95
41078;BME280;26823;42.662;23.352;2022-11-20T11:52:18;94135.31;;;13.28;79.07
41078;BME280;26823;42.662;23.352;2022-11-20T12:05:19;94118.03;;;13.24;83.20
41078;BME280;26823;42.662;23.352;2022-11-20T12:10:23;94120.19;;;13.35;79.65
41078;BME280;26823;42.662;23.352;2022-11-20T12:13:01;94123.16;;;13.25;82.72
41078;BME280;26823;42.662;23.352;2022-11-20T12:15:33;94126.72;;;13.34;83.33
41078;BME280;26823;42.662;23.352;2022-11-20T12:17:59;94110.03;;;13.18;77.90
41078;BME280;26823;42.662;23.352;2022-11-20T12:20:33;94134.66;;;13.22;78.32
41078;BME280;26823;42.662;23.352;2022-11-20T12:25:35;94123.16;;;13.25;78.28
41078;BME280;26823;42.662;23.352;2022-11-20T12:28:18;94137.88;;;13.01;77.50
41078;BME280;26823;42.662;23.352;2022-11-20T12:33:34;94127.72;;;12.84;79.47
41078;BME280;26823;42.662;23.352;2022-11-20T12:36:12;94145.41;;;13.04;80.91
41078;BME280;26823;42.662;23.352;2022-11-20T12:44:16;94055.50;;;12.97;81.08
41078;BME280;26823;42.662;23.352;2022-11-20T12:52:46;94051.53;;;13.03;77.93
41078;BME280;26823;42.662;23.352;2022-11-20T12:58:03;94058.25;;;12.75;84.01
41078;BME280;26823;42.662;23.352;2022-11-20T13:00:33;94052.38;;;12.59;84.42
41078;BME280;26823;42.662;23.352;2022-11-20T13:08:36;94061.38;;;12.99;87.06
41078;BME280;26823;42.662;23.352;2022-11-20T13:11:31;94048.19;;;13.07;86.40
41078;BME280;26823;42.662;23.352;2022-11-20T13:14:30;94029.53;;;12.82;87.98
41078;BME280;26823;42.662;23.352;2022-11-20T13:19:57;94102.00;;;12.82;90.21
41078;BME280;26823;42.662;23.352;2022-11-20T13:22:28;94091.72;;;12.70;90.91
41078;BME280;26823;42.662;23.352;2022-11-20T13:24:54;94070.59;;;12.35;89.70
41078;BME280;26823;42.662;23.352;2022-11-20T13:27:23;94035.75;;;12.51;89.24
41078;BME280;26823;42.662;23.352;2022-11-20T13:30:13;94102.31;;;12.80;90.12
41078;BME280;26823;42.662;23.352;2022-11-20T13:32:54;94147.59;;;12.94;90.16
41078;BME280;26823;42.662;23.352;2022-11-20T13:40:31;94067.44;;;12.65;91.37
41078;BME280;26823;42.662;23.352;2022-11-20T13:43:14;94132.28;;;12.98;89.77
41078;BME280;26823;42.662;23.352;2022-11-20T13:45:41;94105.06;;;12.89;90.71
41078;BME280;26823;42.662;23.352;2022-11-20T13:48:38;94088.81;;;12.66;90.47
41078;BME280;26823;42.662;23.352;2022-11-20T13:54:09;94113.78;;;12.77;89.23
41078;BME280;26823;42.662;23.352;2022-11-20T13:56:58;94099.47;;;12.63;88.89
41078;BME280;26823;42.662;23.352;2022-11-20T14:01:55;94130.59;;;12.88;91.50
41078;BME280;26823;42.662;23.352;2022-11-20T14:04:31;94116.00;;;12.75;92.90
41078;BME280;26823;42.662;23.352;2022-11-20T14:06:58;94126.31;;;12.87;91.82
41078;BME280;26823;42.662;23.352;2022-11-20T14:09:32;94136.84;;;12.88;93.52
41078;BME280;26823;42.662;23.352;2022-11-20T14:11:58;94110.03;;;12.87;92.66
41078;BME280;26823;42.662;23.352;2022-11-20T14:14:26;94103.06;;;12.72;90.67
41078;BME280;26823;42.662;23.352;2022-11-20T14:16:52;94106.19;;;12.88;89.69
41078;BME280;26823;42.662;23.352;2022-11-20T14:22:33;94113.66;;;13.05;91.39
41078;BME280;26823;42.662;23.352;2022-11-20T14:24:34;94109.97;;;13.01;92.80
41078;BME280;26823;42.662;23.352;2022-11-20T14:27:00;94100.53;;;13.07;92.82